Flight Track Log - Related Links

Times and Time Zones

All times are in EDT time to prevent confusion due to time zone crossing. See the LXJ621 flight status page for this flight to view local times or setup timezone preferences in your user account.

Time Position Orientation Groundspeed Altitude Reporting Facility
EDT Latitude Longitude Course Direction KTS MPH feet Rate Location/Type
Wed 07:28:26 AM 32.8617 -79.9892 42° Northeast 237 273 3,900  Level Jacksonville Center
Wed 07:29:26 AM 32.8956 -79.9164 61° Northeast 256 295 7,600 3,650 Climbing Jacksonville Center
Wed 07:30:26 AM 32.9436 -79.8306 56° Northeast 277 319 11,200 4,300 Climbing Jacksonville Center
Wed 07:31:26 AM 33.0100 -79.7269 53° Northeast 326 375 16,200 4,250 Climbing Jacksonville Center
Wed 07:32:26 AM 33.0658 -79.6233 57° Northeast 355 409 19,700 3,000 Climbing Jacksonville Center
Wed 07:33:00 AM 33.2380 -79.3259 42° Northeast  Level FlightAware Approximate
Wed 07:33:26 AM 33.1275 -79.5094 57° Northeast 383 441 22,200  Level Jacksonville Center
Wed 07:34:26 AM 33.1931 -79.3878 57° Northeast 406 467 23,700 2,050 Climbing Jacksonville Center
Wed 07:35:26 AM 33.2839 -79.2847 43° Northeast 430 495 26,300 2,700 Climbing Jacksonville Center
Wed 07:36:26 AM 33.3772 -79.1867 41° Northeast 439 505 29,100 2,400 Climbing Jacksonville Center
Wed 07:37:26 AM 33.4603 -79.1033 40° Northeast 439 505 31,100 1,800 Climbing Jacksonville Center
Wed 07:38:26 AM 33.5550 -78.9972 43° Northeast 439 505 32,700 1,300 Climbing Jacksonville Center
Wed 07:39:26 AM 33.6581 -78.8903 41° Northeast 463 533 33,700 1,200 Climbing Jacksonville Center
Wed 07:41:31 AM 33.8592 -78.6578 44° Northeast 550 633 36,400 1,330 Climbing Washington Center
Wed 07:42:31 AM 33.9419 -78.5231 53° Northeast 514 592 37,800 1,231 Climbing Washington Center
Wed 07:43:28 AM 34.0264 -78.3933 52° Northeast 495 570 38,800 1,017 Climbing Washington Center
Wed 07:44:29 AM 34.1086 -78.2631 53° Northeast 490 564 39,800 950 Climbing Washington Center
Wed 07:45:28 AM 34.1928 -78.1353 51° Northeast 490 564 40,700 950 Climbing Washington Center
Wed 07:46:29 AM 34.2892 -78.0203 45° Northeast 490 564 41,700 836 Climbing Washington Center
Wed 07:47:30 AM 34.4131 -77.9811 15° North 462 532 42,400 595 Climbing Washington Center
Wed 07:48:30 AM 34.5381 -77.9797 North 433 498 42,900 550 Climbing Washington Center
Wed 07:49:30 AM 34.6633 -77.9783 North 445 512 43,500 545 Climbing Washington Center
Wed 07:50:31 AM 34.7908 -77.9692 North 450 518 44,000 555 Climbing Washington Center
Wed 07:51:29 AM 34.9244 -77.9631 North 444 511 44,600 504 Climbing Washington Center
Wed 07:52:30 AM 35.0375 -77.9536 North 450 518 45,000 198 Climbing Washington Center
Wed 07:53:30 AM 35.1628 -77.9472 North 450 518 45,000  Level Washington Center
Wed 07:54:31 AM 35.2900 -77.9433 North 450 518 45,000  Level Washington Center
Wed 07:55:31 AM 35.4194 -77.9344 North 455 524 45,000  Level Washington Center
Wed 07:56:31 AM 35.5511 -77.9281 North 460 529 45,000  Level Washington Center
Wed 07:57:28 AM 35.6828 -77.9217 North 460 529 45,000  Level Washington Center
Wed 07:58:31 AM 35.8122 -77.9153 North 460 529 45,000  Level Washington Center
Wed 07:59:29 AM 35.9417 -77.9086 North 460 529 45,000  Level Washington Center
Wed 08:00:29 AM 36.0733 -77.9047 North 460 529 45,000  Level Washington Center
Wed 08:01:30 AM 36.2069 -77.8958 North 465 535 45,000  Level Washington Center
Wed 08:02:31 AM 36.3386 -77.8894 North 465 535 45,000  Level Washington Center
Wed 08:03:31 AM 36.4658 -77.8828 North 459 528 45,000  Level Washington Center
Wed 08:04:29 AM 36.5939 -77.8503 12° North 459 528 45,000  Level Washington Center
Wed 08:05:29 AM 36.7158 -77.7917 21° North 467 537 45,000  Level Washington Center
Wed 08:06:30 AM 36.8361 -77.7278 23° Northeast 467 537 45,000  Level Washington Center
Wed 08:07:30 AM 36.9603 -77.6636 22° Northeast 467 537 45,000  Level Washington Center
Wed 08:08:31 AM 37.0822 -77.6044 21° North 467 537 45,000  Level Washington Center
Wed 08:09:29 AM 37.2022 -77.5397 23° Northeast 467 537 45,000  Level Washington Center
Wed 08:10:29 AM 37.3261 -77.4775 22° Northeast 467 537 45,000  Level Washington Center
Wed 08:11:30 AM 37.4481 -77.4150 22° Northeast 467 537 45,000  Level Washington Center
Wed 08:12:31 AM 37.5700 -77.3525 22° Northeast 467 537 45,000  Level Washington Center
Wed 08:13:30 AM 37.6919 -77.2844 24° Northeast 467 537 45,000 -250 Level Washington Center
Wed 08:14:31 AM 37.8161 -77.2189 23° Northeast 472 543 44,500 -807 Descending Washington Center
Wed 08:15:29 AM 37.9378 -77.1558 22° Northeast 472 543 43,400 -1,563 Descending Washington Center
Wed 08:16:30 AM 38.0597 -77.0897 23° Northeast 472 543 41,400 -2,066 Descending Washington Center
Wed 08:17:31 AM 38.1792 -77.0286 22° Northeast 472 543 39,200 -2,083 Descending Washington Center
Wed 08:18:31 AM 38.2967 -76.9647 23° Northeast 461 531 37,200 -1,983 Descending Washington Center
Wed 08:19:29 AM 38.4183 -76.9033 22° Northeast 456 525 35,300 -1,525 Descending Washington Center
Wed 08:20:29 AM 38.5381 -76.8364 24° Northeast 456 525 34,200 -1,050 Descending Washington Center
Wed 08:21:29 AM 38.6575 -76.7747 22° Northeast 456 525 33,200 -934 Descending Washington Center
Wed 08:22:31 AM 38.7603 -76.6858 34° Northeast 443 510 32,300 -1,261 Descending Washington Center
Wed 08:23:28 AM 38.8447 -76.5831 43° Northeast 424 488 30,700 -1,846 Descending Washington Center
Wed 08:24:28 AM 38.9308 -76.4856 41° Northeast 417 480 28,700 -1,983 Descending Washington Center
Wed 08:25:29 AM 39.0108 -76.3903 43° Northeast 398 458 26,700 -2,115 Descending Washington Center
Wed 08:26:30 AM 39.0906 -76.2978 42° Northeast 391 450 24,400 -1,350 Descending Washington Center
Wed 08:27:29 AM 39.1681 -76.2072 42° Northeast 381 438 24,000 -200 Descending Washington Center
Wed 08:28:30 AM 39.2497 -76.1169 41° Northeast 381 438 24,000 -659 Level Washington Center
Wed 08:30:22 AM 39.4167 -75.9500 38° Northeast 369 425 22,100 -1,618 Descending Philadelphia TRACON
Wed 08:31:28 AM 39.5000 -75.8667 38° Northeast 363 418 19,200 -2,524 Descending Philadelphia TRACON
Wed 08:32:28 AM 39.5833 -75.8000 32° Northeast 362 417 16,800 -2,190 Descending Philadelphia TRACON
Wed 08:33:34 AM 39.6667 -75.7167 38° Northeast 345 397 14,600 -1,762 Descending Philadelphia TRACON
Wed 08:34:34 AM 39.7500 -75.6500 32° Northeast 334 384 13,100 -800 Descending Philadelphia TRACON
Wed 08:35:34 AM 39.8167 -75.5833 38° Northeast 332 382 13,000 -48 Descending Philadelphia TRACON
Wed 08:36:40 AM 39.9000 -75.5000 37° Northeast 331 381 13,000  Level Philadelphia TRACON
Wed 08:37:34 AM 39.9833 -75.4333 32° Northeast 339 390 13,000  Level Philadelphia TRACON
Wed 08:38:34 AM 40.0500 -75.3500 44° Northeast 336 387 13,000 100 Level Philadelphia TRACON
Wed 08:39:34 AM 40.1167 -75.3000 30° Northeast 311 358 13,200 -350 Climbing Philadelphia TRACON
Wed 08:40:34 AM 40.2000 -75.2333 31° Northeast 322 371 12,300 -1,415 Descending Philadelphia TRACON
Wed 08:42:49 AM 40.3500 -75.0833 37° Northeast 297 342 8,600 -1,651 Descending New York TRACON
Wed 08:43:43 AM 40.4000 -75.0167 45° Northeast 278 320 7,100 -1,150 Descending New York TRACON
Wed 08:44:49 AM 40.4333 -74.9333 62° Northeast 263 303 6,300 -1,150 Descending New York TRACON
Wed 08:45:43 AM 40.4667 -74.8500 62° Northeast 265 305 4,800 -1,526 Descending New York TRACON
Wed 08:46:43 AM 40.5000 -74.7667 62° Northeast 251 289 3,400 -850 Descending New York TRACON
Wed 08:47:43 AM 40.5333 -74.6833 62° Northeast 245 282 3,100 -150 Descending New York TRACON
Wed 08:48:43 AM 40.5667 -74.6167 57° Northeast 228 262 3,100  Level New York TRACON
Wed 08:49:43 AM 40.6000 -74.5500 57° Northeast 210 242 3,100  Level New York TRACON
Wed 08:50:43 AM 40.6167 -74.4833 72° East 214 246 3,100 -149 Level New York TRACON
Wed 08:51:44 AM 40.6500 -74.4167 57° Northeast 221 254 2,800 -500 Descending New York TRACON
Wed 08:52:43 AM 40.6833 -74.3500 57° Northeast 198 228 2,100 -372 Descending New York TRACON
Wed 08:53:37 AM 40.7000 -74.2833 72° East 165 190 2,100 -200 Level New York TRACON
Wed 08:54:43 AM 40.7333 -74.2333 49° Northeast 173 199 1,700 -238 Descending New York TRACON
Wed 08:55:43 AM 40.7667 -74.1833 49° Northeast 177 204 1,600 -50 Descending New York TRACON
Wed 08:56:43 AM 40.8000 -74.1500 37° Northeast 168 193 1,600 -350 Level New York TRACON
Wed 08:57:43 AM 40.8167 -74.1000 66° East 124 143 900 -700 Descending New York TRACON
Wed 08:59:00 AM 40.8500 -74.0500 57° Northeast  Level FlightAware Approximate
Wed 09:06:00 AM 40.8501 -74.0608 57° Northeast  Level Estimated

Login

Don't have an account? Register now (free) for customized features, flight alerts, and more!